sensor_id;sensor_type;location;lat;lon;timestamp;P1;durP1;ratioP1;P2;durP2;ratioP2
43706;SDS011;61348;53.392;-6.248;2024-01-30T00:00:50;11.02;;;3.13;;
43706;SDS011;61348;53.392;-6.248;2024-01-30T00:03:18;10.10;;;3.00;;
43706;SDS011;61348;53.392;-6.248;2024-01-30T00:05:45;16.42;;;4.05;;
43706;SDS011;61348;53.392;-6.248;2024-01-30T00:08:13;10.23;;;2.97;;
43706;SDS011;61348;53.392;-6.248;2024-01-30T00:10:40;14.35;;;4.18;;
43706;SDS011;61348;53.392;-6.248;2024-01-30T00:13:08;12.23;;;3.00;;
43706;SDS011;61348;53.392;-6.248;2024-01-30T00:15:35;7.38;;;2.80;;
43706;SDS011;61348;53.392;-6.248;2024-01-30T00:18:03;14.23;;;3.13;;
43706;SDS011;61348;53.392;-6.248;2024-01-30T00:20:30;18.15;;;3.60;;
43706;SDS011;61348;53.392;-6.248;2024-01-30T00:22:58;20.42;;;4.03;;
43706;SDS011;61348;53.392;-6.248;2024-01-30T00:25:25;11.38;;;3.40;;
43706;SDS011;61348;53.392;-6.248;2024-01-30T00:27:53;15.18;;;3.72;;
43706;SDS011;61348;53.392;-6.248;2024-01-30T00:30:20;13.27;;;3.35;;
43706;SDS011;61348;53.392;-6.248;2024-01-30T00:32:48;9.88;;;2.88;;
43706;SDS011;61348;53.392;-6.248;2024-01-30T00:35:15;15.25;;;3.05;;
43706;SDS011;61348;53.392;-6.248;2024-01-30T00:37:42;13.02;;;3.45;;
43706;SDS011;61348;53.392;-6.248;2024-01-30T00:40:10;12.32;;;3.78;;
43706;SDS011;61348;53.392;-6.248;2024-01-30T00:42:43;11.90;;;2.95;;
43706;SDS011;61348;53.392;-6.248;2024-01-30T00:45:11;21.20;;;2.80;;
43706;SDS011;61348;53.392;-6.248;2024-01-30T00:47:41;9.02;;;2.78;;
43706;SDS011;61348;53.392;-6.248;2024-01-30T00:50:08;14.98;;;2.83;;
43706;SDS011;61348;53.392;-6.248;2024-01-30T00:52:36;11.23;;;3.10;;
43706;SDS011;61348;53.392;-6.248;2024-01-30T00:55:07;6.93;;;2.55;;
43706;SDS011;61348;53.392;-6.248;2024-01-30T00:57:34;11.75;;;2.75;;
43706;SDS011;61348;53.392;-6.248;2024-01-30T01:00:03;7.80;;;2.92;;
43706;SDS011;61348;53.392;-6.248;2024-01-30T01:02:33;11.55;;;3.75;;
43706;SDS011;61348;53.392;-6.248;2024-01-30T01:05:02;13.13;;;3.70;;
43706;SDS011;61348;53.392;-6.248;2024-01-30T01:07:30;12.30;;;2.72;;
43706;SDS011;61348;53.392;-6.248;2024-01-30T01:09:57;8.52;;;3.15;;
43706;SDS011;61348;53.392;-6.248;2024-01-30T01:12:25;10.07;;;2.42;;
43706;SDS011;61348;53.392;-6.248;2024-01-30T01:14:52;14.43;;;2.47;;
43706;SDS011;61348;53.392;-6.248;2024-01-30T01:17:20;19.85;;;2.95;;
43706;SDS011;61348;53.392;-6.248;2024-01-30T01:19:47;12.40;;;3.10;;
43706;SDS011;61348;53.392;-6.248;2024-01-30T01:22:15;10.32;;;2.28;;
43706;SDS011;61348;53.392;-6.248;2024-01-30T01:24:44;7.43;;;2.67;;
43706;SDS011;61348;53.392;-6.248;2024-01-30T01:27:11;11.07;;;2.53;;
43706;SDS011;61348;53.392;-6.248;2024-01-30T01:29:39;15.68;;;2.58;;
43706;SDS011;61348;53.392;-6.248;2024-01-30T01:32:06;11.23;;;2.53;;
43706;SDS011;61348;53.392;-6.248;2024-01-30T01:34:34;7.75;;;2.42;;
43706;SDS011;61348;53.392;-6.248;2024-01-30T01:37:01;8.38;;;2.50;;
43706;SDS011;61348;53.392;-6.248;2024-01-30T01:39:29;9.68;;;2.70;;
43706;SDS011;61348;53.392;-6.248;2024-01-30T01:41:56;8.48;;;2.85;;
43706;SDS011;61348;53.392;-6.248;2024-01-30T01:44:23;11.45;;;2.60;;
43706;SDS011;61348;53.392;-6.248;2024-01-30T01:46:51;13.32;;;2.53;;
43706;SDS011;61348;53.392;-6.248;2024-01-30T01:49:27;10.82;;;2.20;;
43706;SDS011;61348;53.392;-6.248;2024-01-30T01:51:56;8.65;;;2.17;;
43706;SDS011;61348;53.392;-6.248;2024-01-30T01:54:26;14.70;;;2.17;;
43706;SDS011;61348;53.392;-6.248;2024-01-30T01:56:55;10.52;;;3.95;;
43706;SDS011;61348;53.392;-6.248;2024-01-30T01:59:23;11.35;;;2.97;;
43706;SDS011;61348;53.392;-6.248;2024-01-30T02:01:51;11.15;;;2.80;;
43706;SDS011;61348;53.392;-6.248;2024-01-30T02:04:20;15.95;;;4.20;;
43706;SDS011;61348;53.392;-6.248;2024-01-30T02:06:47;13.95;;;4.90;;
43706;SDS011;61348;53.392;-6.248;2024-01-30T02:09:15;11.43;;;2.85;;
43706;SDS011;61348;53.392;-6.248;2024-01-30T02:11:43;16.50;;;2.95;;
43706;SDS011;61348;53.392;-6.248;2024-01-30T02:14:10;13.55;;;2.95;;
43706;SDS011;61348;53.392;-6.248;2024-01-30T02:16:38;5.15;;;2.10;;
43706;SDS011;61348;53.392;-6.248;2024-01-30T02:19:05;10.32;;;2.35;;
43706;SDS011;61348;53.392;-6.248;2024-01-30T02:21:34;14.80;;;3.65;;
43706;SDS011;61348;53.392;-6.248;2024-01-30T02:24:02;11.00;;;1.90;;
43706;SDS011;61348;53.392;-6.248;2024-01-30T02:26:30;8.43;;;2.33;;
43706;SDS011;61348;53.392;-6.248;2024-01-30T02:28:58;8.52;;;2.90;;
43706;SDS011;61348;53.392;-6.248;2024-01-30T02:31:25;6.93;;;2.13;;
43706;SDS011;61348;53.392;-6.248;2024-01-30T02:33:53;10.15;;;2.78;;
43706;SDS011;61348;53.392;-6.248;2024-01-30T02:36:21;15.35;;;2.97;;
43706;SDS011;61348;53.392;-6.248;2024-01-30T02:38:48;8.32;;;2.78;;
43706;SDS011;61348;53.392;-6.248;2024-01-30T02:41:16;9.52;;;2.47;;
43706;SDS011;61348;53.392;-6.248;2024-01-30T02:43:43;10.60;;;2.90;;
43706;SDS011;61348;53.392;-6.248;2024-01-30T02:46:11;9.00;;;2.25;;
43706;SDS011;61348;53.392;-6.248;2024-01-30T02:48:38;10.20;;;3.78;;
43706;SDS011;61348;53.392;-6.248;2024-01-30T02:51:06;10.25;;;1.98;;
43706;SDS011;61348;53.392;-6.248;2024-01-30T02:53:33;15.93;;;2.75;;
43706;SDS011;61348;53.392;-6.248;2024-01-30T02:56:02;8.05;;;1.85;;
43706;SDS011;61348;53.392;-6.248;2024-01-30T02:58:30;7.80;;;2.20;;
43706;SDS011;61348;53.392;-6.248;2024-01-30T03:00:57;8.45;;;2.25;;
43706;SDS011;61348;53.392;-6.248;2024-01-30T03:03:25;10.27;;;2.38;;
43706;SDS011;61348;53.392;-6.248;2024-01-30T03:05:53;12.00;;;3.20;;
43706;SDS011;61348;53.392;-6.248;2024-01-30T03:08:21;18.70;;;2.30;;
43706;SDS011;61348;53.392;-6.248;2024-01-30T03:10:48;10.02;;;3.80;;
43706;SDS011;61348;53.392;-6.248;2024-01-30T03:13:16;9.68;;;2.20;;
43706;SDS011;61348;53.392;-6.248;2024-01-30T03:15:43;11.52;;;2.83;;
43706;SDS011;61348;53.392;-6.248;2024-01-30T03:18:11;11.20;;;2.08;;
43706;SDS011;61348;53.392;-6.248;2024-01-30T03:20:39;7.30;;;1.90;;
43706;SDS011;61348;53.392;-6.248;2024-01-30T03:23:06;6.85;;;2.35;;
43706;SDS011;61348;53.392;-6.248;2024-01-30T03:25:33;9.02;;;1.75;;
43706;SDS011;61348;53.392;-6.248;2024-01-30T03:28:01;4.38;;;1.42;;
43706;SDS011;61348;53.392;-6.248;2024-01-30T03:30:28;11.40;;;1.92;;
43706;SDS011;61348;53.392;-6.248;2024-01-30T03:32:56;4.55;;;1.80;;
43706;SDS011;61348;53.392;-6.248;2024-01-30T03:35:23;4.88;;;1.92;;
43706;SDS011;61348;53.392;-6.248;2024-01-30T03:37:51;8.77;;;2.00;;
43706;SDS011;61348;53.392;-6.248;2024-01-30T03:40:18;8.50;;;3.33;;
43706;SDS011;61348;53.392;-6.248;2024-01-30T03:42:46;5.82;;;1.98;;
43706;SDS011;61348;53.392;-6.248;2024-01-30T03:45:13;7.47;;;2.30;;
43706;SDS011;61348;53.392;-6.248;2024-01-30T03:47:43;3.67;;;1.98;;
43706;SDS011;61348;53.392;-6.248;2024-01-30T03:50:10;12.88;;;3.05;;
43706;SDS011;61348;53.392;-6.248;2024-01-30T03:52:38;8.63;;;1.90;;
43706;SDS011;61348;53.392;-6.248;2024-01-30T03:55:06;12.10;;;1.63;;
43706;SDS011;61348;53.392;-6.248;2024-01-30T03:57:33;7.47;;;2.67;;
43706;SDS011;61348;53.392;-6.248;2024-01-30T04:00:01;5.35;;;1.60;;
43706;SDS011;61348;53.392;-6.248;2024-01-30T04:02:30;11.82;;;2.30;;
43706;SDS011;61348;53.392;-6.248;2024-01-30T04:04:57;9.35;;;2.15;;
43706;SDS011;61348;53.392;-6.248;2024-01-30T04:07:25;6.15;;;1.83;;
43706;SDS011;61348;53.392;-6.248;2024-01-30T04:09:53;6.72;;;2.03;;
43706;SDS011;61348;53.392;-6.248;2024-01-30T04:12:27;7.63;;;1.85;;
43706;SDS011;61348;53.392;-6.248;2024-01-30T04:14:54;8.77;;;1.30;;
43706;SDS011;61348;53.392;-6.248;2024-01-30T04:17:21;8.60;;;1.95;;
43706;SDS011;61348;53.392;-6.248;2024-01-30T04:19:49;7.85;;;1.23;;
43706;SDS011;61348;53.392;-6.248;2024-01-30T04:22:16;9.35;;;1.75;;
43706;SDS011;61348;53.392;-6.248;2024-01-30T04:24:44;8.63;;;1.55;;
43706;SDS011;61348;53.392;-6.248;2024-01-30T04:27:12;6.85;;;1.83;;
43706;SDS011;61348;53.392;-6.248;2024-01-30T04:29:39;8.00;;;1.58;;
43706;SDS011;61348;53.392;-6.248;2024-01-30T04:32:07;6.97;;;1.65;;
43706;SDS011;61348;53.392;-6.248;2024-01-30T04:34:34;6.30;;;1.45;;
43706;SDS011;61348;53.392;-6.248;2024-01-30T04:37:03;7.18;;;2.08;;
43706;SDS011;61348;53.392;-6.248;2024-01-30T04:39:32;6.60;;;1.60;;
43706;SDS011;61348;53.392;-6.248;2024-01-30T04:42:00;4.90;;;1.77;;
43706;SDS011;61348;53.392;-6.248;2024-01-30T04:44:27;3.45;;;1.60;;
43706;SDS011;61348;53.392;-6.248;2024-01-30T04:46:55;2.92;;;1.25;;
43706;SDS011;61348;53.392;-6.248;2024-01-30T04:49:25;4.95;;;1.33;;
43706;SDS011;61348;53.392;-6.248;2024-01-30T04:51:53;6.05;;;1.23;;
43706;SDS011;61348;53.392;-6.248;2024-01-30T04:54:20;7.63;;;2.08;;
43706;SDS011;61348;53.392;-6.248;2024-01-30T04:56:48;6.63;;;1.73;;
43706;SDS011;61348;53.392;-6.248;2024-01-30T04:59:15;10.60;;;2.17;;
43706;SDS011;61348;53.392;-6.248;2024-01-30T05:01:43;15.00;;;3.35;;
43706;SDS011;61348;53.392;-6.248;2024-01-30T05:04:10;7.20;;;1.60;;
43706;SDS011;61348;53.392;-6.248;2024-01-30T05:09:10;8.93;;;1.75;;
43706;SDS011;61348;53.392;-6.248;2024-01-30T05:11:38;3.22;;;1.23;;
43706;SDS011;61348;53.392;-6.248;2024-01-30T05:14:06;6.72;;;1.20;;
43706;SDS011;61348;53.392;-6.248;2024-01-30T05:16:35;4.85;;;1.38;;
43706;SDS011;61348;53.392;-6.248;2024-01-30T05:19:02;20.60;;;2.35;;
43706;SDS011;61348;53.392;-6.248;2024-01-30T05:21:30;3.63;;;1.50;;
43706;SDS011;61348;53.392;-6.248;2024-01-30T05:23:57;11.63;;;2.22;;
43706;SDS011;61348;53.392;-6.248;2024-01-30T05:26:25;8.00;;;2.28;;
43706;SDS011;61348;53.392;-6.248;2024-01-30T05:28:53;2.22;;;1.20;;
43706;SDS011;61348;53.392;-6.248;2024-01-30T05:31:20;9.52;;;1.83;;
43706;SDS011;61348;53.392;-6.248;2024-01-30T05:33:48;2.80;;;1.95;;
43706;SDS011;61348;53.392;-6.248;2024-01-30T05:36:16;6.07;;;2.05;;
43706;SDS011;61348;53.392;-6.248;2024-01-30T05:38:43;10.50;;;1.90;;
43706;SDS011;61348;53.392;-6.248;2024-01-30T05:41:11;8.00;;;1.65;;
43706;SDS011;61348;53.392;-6.248;2024-01-30T05:43:38;5.43;;;1.40;;
43706;SDS011;61348;53.392;-6.248;2024-01-30T05:46:06;7.07;;;1.85;;
43706;SDS011;61348;53.392;-6.248;2024-01-30T05:48:33;3.88;;;1.80;;
43706;SDS011;61348;53.392;-6.248;2024-01-30T05:51:02;11.20;;;2.15;;
43706;SDS011;61348;53.392;-6.248;2024-01-30T05:53:31;3.97;;;1.95;;
43706;SDS011;61348;53.392;-6.248;2024-01-30T05:55:59;10.93;;;2.25;;
43706;SDS011;61348;53.392;-6.248;2024-01-30T05:58:28;10.60;;;2.85;;
43706;SDS011;61348;53.392;-6.248;2024-01-30T06:00:56;11.23;;;5.25;;
43706;SDS011;61348;53.392;-6.248;2024-01-30T06:03:25;4.82;;;1.77;;
43706;SDS011;61348;53.392;-6.248;2024-01-30T06:05:52;7.30;;;1.98;;
43706;SDS011;61348;53.392;-6.248;2024-01-30T06:08:20;7.20;;;1.50;;
43706;SDS011;61348;53.392;-6.248;2024-01-30T06:10:47;7.93;;;2.33;;
43706;SDS011;61348;53.392;-6.248;2024-01-30T06:13:14;4.45;;;1.98;;
43706;SDS011;61348;53.392;-6.248;2024-01-30T06:15:42;8.93;;;2.90;;
43706;SDS011;61348;53.392;-6.248;2024-01-30T06:18:10;7.47;;;2.35;;
43706;SDS011;61348;53.392;-6.248;2024-01-30T06:20:39;7.40;;;2.00;;
43706;SDS011;61348;53.392;-6.248;2024-01-30T06:23:07;11.85;;;2.20;;
43706;SDS011;61348;53.392;-6.248;2024-01-30T06:25:34;6.65;;;2.53;;
43706;SDS011;61348;53.392;-6.248;2024-01-30T06:28:13;8.70;;;2.65;;
43706;SDS011;61348;53.392;-6.248;2024-01-30T06:30:41;6.40;;;2.53;;
43706;SDS011;61348;53.392;-6.248;2024-01-30T06:33:11;6.45;;;2.60;;
43706;SDS011;61348;53.392;-6.248;2024-01-30T06:35:40;5.78;;;2.22;;
43706;SDS011;61348;53.392;-6.248;2024-01-30T06:38:11;5.53;;;1.70;;
43706;SDS011;61348;53.392;-6.248;2024-01-30T06:40:38;7.20;;;2.72;;
43706;SDS011;61348;53.392;-6.248;2024-01-30T06:43:06;11.32;;;3.58;;
43706;SDS011;61348;53.392;-6.248;2024-01-30T06:45:35;8.73;;;3.42;;
43706;SDS011;61348;53.392;-6.248;2024-01-30T06:48:02;11.55;;;2.63;;
43706;SDS011;61348;53.392;-6.248;2024-01-30T06:50:30;8.95;;;2.20;;
43706;SDS011;61348;53.392;-6.248;2024-01-30T06:52:58;15.27;;;5.28;;
43706;SDS011;61348;53.392;-6.248;2024-01-30T06:55:25;9.77;;;3.05;;
43706;SDS011;61348;53.392;-6.248;2024-01-30T06:57:53;11.85;;;3.38;;
43706;SDS011;61348;53.392;-6.248;2024-01-30T07:00:20;7.75;;;3.72;;
43706;SDS011;61348;53.392;-6.248;2024-01-30T07:02:48;7.63;;;2.83;;
43706;SDS011;61348;53.392;-6.248;2024-01-30T07:05:15;11.23;;;3.15;;
43706;SDS011;61348;53.392;-6.248;2024-01-30T07:07:44;10.18;;;2.85;;
43706;SDS011;61348;53.392;-6.248;2024-01-30T07:10:12;12.85;;;4.63;;
43706;SDS011;61348;53.392;-6.248;2024-01-30T07:12:39;14.13;;;3.50;;
43706;SDS011;61348;53.392;-6.248;2024-01-30T07:15:07;12.95;;;4.03;;
43706;SDS011;61348;53.392;-6.248;2024-01-30T07:17:35;15.45;;;4.80;;
43706;SDS011;61348;53.392;-6.248;2024-01-30T07:20:04;15.45;;;4.18;;
43706;SDS011;61348;53.392;-6.248;2024-01-30T07:22:33;11.15;;;3.83;;
43706;SDS011;61348;53.392;-6.248;2024-01-30T07:25:00;15.07;;;3.95;;
43706;SDS011;61348;53.392;-6.248;2024-01-30T07:27:28;10.93;;;4.38;;
43706;SDS011;61348;53.392;-6.248;2024-01-30T07:29:55;10.25;;;3.97;;
43706;SDS011;61348;53.392;-6.248;2024-01-30T07:32:23;10.70;;;3.42;;
43706;SDS011;61348;53.392;-6.248;2024-01-30T07:34:50;18.48;;;3.50;;
43706;SDS011;61348;53.392;-6.248;2024-01-30T07:37:33;9.70;;;3.45;;
43706;SDS011;61348;53.392;-6.248;2024-01-30T07:40:01;10.95;;;3.85;;
43706;SDS011;61348;53.392;-6.248;2024-01-30T07:42:29;15.30;;;3.20;;
43706;SDS011;61348;53.392;-6.248;2024-01-30T07:44:57;9.32;;;2.95;;
43706;SDS011;61348;53.392;-6.248;2024-01-30T07:47:24;15.55;;;4.10;;
43706;SDS011;61348;53.392;-6.248;2024-01-30T07:49:52;9.63;;;3.85;;
43706;SDS011;61348;53.392;-6.248;2024-01-30T07:52:21;10.75;;;3.83;;
43706;SDS011;61348;53.392;-6.248;2024-01-30T07:54:49;10.63;;;2.92;;
43706;SDS011;61348;53.392;-6.248;2024-01-30T07:57:17;10.80;;;3.92;;
43706;SDS011;61348;53.392;-6.248;2024-01-30T07:59:45;11.60;;;3.28;;
43706;SDS011;61348;53.392;-6.248;2024-01-30T08:02:12;10.30;;;3.47;;
43706;SDS011;61348;53.392;-6.248;2024-01-30T08:04:40;8.60;;;3.88;;
43706;SDS011;61348;53.392;-6.248;2024-01-30T08:07:08;9.18;;;3.35;;
43706;SDS011;61348;53.392;-6.248;2024-01-30T08:09:36;12.35;;;4.15;;
43706;SDS011;61348;53.392;-6.248;2024-01-30T08:12:03;11.82;;;5.03;;
43706;SDS011;61348;53.392;-6.248;2024-01-30T08:14:31;12.70;;;3.47;;
43706;SDS011;61348;53.392;-6.248;2024-01-30T08:16:59;10.73;;;3.20;;
43706;SDS011;61348;53.392;-6.248;2024-01-30T08:19:26;7.78;;;3.40;;
43706;SDS011;61348;53.392;-6.248;2024-01-30T08:21:54;13.52;;;3.83;;
43706;SDS011;61348;53.392;-6.248;2024-01-30T08:24:22;6.97;;;3.72;;
43706;SDS011;61348;53.392;-6.248;2024-01-30T08:26:50;6.93;;;3.42;;
43706;SDS011;61348;53.392;-6.248;2024-01-30T08:29:17;10.95;;;3.47;;
43706;SDS011;61348;53.392;-6.248;2024-01-30T08:31:45;10.20;;;4.10;;
43706;SDS011;61348;53.392;-6.248;2024-01-30T08:34:13;12.30;;;5.13;;
43706;SDS011;61348;53.392;-6.248;2024-01-30T08:36:40;13.18;;;3.92;;
43706;SDS011;61348;53.392;-6.248;2024-01-30T08:39:08;7.85;;;3.03;;
43706;SDS011;61348;53.392;-6.248;2024-01-30T08:41:35;8.80;;;2.90;;
43706;SDS011;61348;53.392;-6.248;2024-01-30T08:44:03;5.90;;;2.95;;
43706;SDS011;61348;53.392;-6.248;2024-01-30T08:46:31;10.00;;;3.90;;
43706;SDS011;61348;53.392;-6.248;2024-01-30T08:48:58;15.13;;;3.60;;
43706;SDS011;61348;53.392;-6.248;2024-01-30T08:51:26;14.68;;;3.50;;
43706;SDS011;61348;53.392;-6.248;2024-01-30T08:53:53;14.13;;;3.95;;
43706;SDS011;61348;53.392;-6.248;2024-01-30T08:56:21;10.00;;;4.25;;
43706;SDS011;61348;53.392;-6.248;2024-01-30T08:58:48;8.23;;;4.00;;
43706;SDS011;61348;53.392;-6.248;2024-01-30T09:01:16;11.10;;;3.40;;
43706;SDS011;61348;53.392;-6.248;2024-01-30T09:03:43;12.27;;;3.47;;
43706;SDS011;61348;53.392;-6.248;2024-01-30T09:06:13;11.10;;;3.72;;
43706;SDS011;61348;53.392;-6.248;2024-01-30T09:08:40;13.25;;;3.92;;
43706;SDS011;61348;53.392;-6.248;2024-01-30T09:11:11;11.93;;;3.72;;
43706;SDS011;61348;53.392;-6.248;2024-01-30T09:13:40;13.20;;;3.92;;
43706;SDS011;61348;53.392;-6.248;2024-01-30T09:16:08;6.95;;;3.67;;
43706;SDS011;61348;53.392;-6.248;2024-01-30T09:18:35;12.05;;;3.83;;
43706;SDS011;61348;53.392;-6.248;2024-01-30T09:21:03;16.23;;;4.32;;
43706;SDS011;61348;53.392;-6.248;2024-01-30T09:23:30;11.70;;;3.88;;
43706;SDS011;61348;53.392;-6.248;2024-01-30T09:25:58;6.90;;;3.70;;
43706;SDS011;61348;53.392;-6.248;2024-01-30T09:28:26;12.38;;;3.33;;
43706;SDS011;61348;53.392;-6.248;2024-01-30T09:30:54;11.85;;;4.18;;
43706;SDS011;61348;53.392;-6.248;2024-01-30T09:33:21;10.77;;;4.22;;
43706;SDS011;61348;53.392;-6.248;2024-01-30T09:35:49;14.18;;;4.80;;
43706;SDS011;61348;53.392;-6.248;2024-01-30T09:38:16;13.07;;;3.88;;
43706;SDS011;61348;53.392;-6.248;2024-01-30T09:40:44;5.82;;;2.60;;
43706;SDS011;61348;53.392;-6.248;2024-01-30T09:43:17;13.48;;;3.22;;
43706;SDS011;61348;53.392;-6.248;2024-01-30T09:45:53;11.38;;;3.70;;
43706;SDS011;61348;53.392;-6.248;2024-01-30T09:48:21;11.70;;;4.07;;
43706;SDS011;61348;53.392;-6.248;2024-01-30T09:50:50;8.15;;;3.60;;
43706;SDS011;61348;53.392;-6.248;2024-01-30T09:53:18;14.43;;;4.78;;
43706;SDS011;61348;53.392;-6.248;2024-01-30T09:55:46;8.23;;;3.83;;
43706;SDS011;61348;53.392;-6.248;2024-01-30T09:58:14;10.82;;;5.03;;
43706;SDS011;61348;53.392;-6.248;2024-01-30T10:00:41;10.75;;;4.30;;
43706;SDS011;61348;53.392;-6.248;2024-01-30T10:03:09;8.80;;;3.92;;
43706;SDS011;61348;53.392;-6.248;2024-01-30T10:05:37;15.32;;;4.47;;
43706;SDS011;61348;53.392;-6.248;2024-01-30T10:08:07;10.18;;;4.53;;
43706;SDS011;61348;53.392;-6.248;2024-01-30T10:10:35;11.00;;;4.00;;
43706;SDS011;61348;53.392;-6.248;2024-01-30T10:13:04;8.48;;;3.53;;
43706;SDS011;61348;53.392;-6.248;2024-01-30T10:15:32;18.73;;;5.13;;
43706;SDS011;61348;53.392;-6.248;2024-01-30T10:18:02;9.60;;;3.72;;
43706;SDS011;61348;53.392;-6.248;2024-01-30T10:20:30;13.50;;;3.67;;
43706;SDS011;61348;53.392;-6.248;2024-01-30T10:22:57;7.80;;;3.38;;
43706;SDS011;61348;53.392;-6.248;2024-01-30T10:25:25;18.85;;;3.42;;
43706;SDS011;61348;53.392;-6.248;2024-01-30T10:27:53;9.70;;;4.57;;
43706;SDS011;61348;53.392;-6.248;2024-01-30T10:30:25;8.57;;;3.60;;
43706;SDS011;61348;53.392;-6.248;2024-01-30T10:32:52;11.90;;;4.32;;
43706;SDS011;61348;53.392;-6.248;2024-01-30T10:35:20;6.32;;;2.88;;
43706;SDS011;61348;53.392;-6.248;2024-01-30T10:37:48;14.55;;;3.72;;
43706;SDS011;61348;53.392;-6.248;2024-01-30T10:40:16;15.80;;;3.70;;
43706;SDS011;61348;53.392;-6.248;2024-01-30T10:42:44;16.38;;;3.35;;
43706;SDS011;61348;53.392;-6.248;2024-01-30T10:45:13;11.20;;;3.33;;
43706;SDS011;61348;53.392;-6.248;2024-01-30T10:47:49;12.32;;;3.05;;
43706;SDS011;61348;53.392;-6.248;2024-01-30T10:50:17;16.65;;;3.50;;
43706;SDS011;61348;53.392;-6.248;2024-01-30T10:52:46;10.82;;;3.67;;
43706;SDS011;61348;53.392;-6.248;2024-01-30T10:55:14;11.88;;;4.75;;
43706;SDS011;61348;53.392;-6.248;2024-01-30T10:57:43;9.00;;;3.28;;
43706;SDS011;61348;53.392;-6.248;2024-01-30T11:00:11;9.52;;;3.13;;
43706;SDS011;61348;53.392;-6.248;2024-01-30T11:02:43;7.47;;;2.67;;
43706;SDS011;61348;53.392;-6.248;2024-01-30T11:05:13;6.78;;;2.90;;
43706;SDS011;61348;53.392;-6.248;2024-01-30T11:07:43;6.95;;;3.35;;
43706;SDS011;61348;53.392;-6.248;2024-01-30T11:10:11;10.45;;;3.03;;
43706;SDS011;61348;53.392;-6.248;2024-01-30T11:12:42;6.53;;;2.50;;
43706;SDS011;61348;53.392;-6.248;2024-01-30T11:15:15;9.25;;;3.10;;
43706;SDS011;61348;53.392;-6.248;2024-01-30T11:17:44;6.97;;;1.83;;
43706;SDS011;61348;53.392;-6.248;2024-01-30T11:22:47;12.35;;;2.60;;
43706;SDS011;61348;53.392;-6.248;2024-01-30T11:25:19;13.13;;;5.28;;
43706;SDS011;61348;53.392;-6.248;2024-01-30T11:27:51;8.80;;;2.92;;
43706;SDS011;61348;53.392;-6.248;2024-01-30T11:30:41;13.05;;;2.70;;
43706;SDS011;61348;53.392;-6.248;2024-01-30T11:33:10;6.57;;;2.05;;
43706;SDS011;61348;53.392;-6.248;2024-01-30T11:35:40;7.55;;;2.35;;
43706;SDS011;61348;53.392;-6.248;2024-01-30T11:38:13;7.38;;;2.05;;
43706;SDS011;61348;53.392;-6.248;2024-01-30T11:40:42;7.93;;;1.85;;
43706;SDS011;61348;53.392;-6.248;2024-01-30T11:43:13;9.30;;;1.88;;
43706;SDS011;61348;53.392;-6.248;2024-01-30T11:45:40;10.15;;;2.88;;
43706;SDS011;61348;53.392;-6.248;2024-01-30T11:48:08;7.18;;;2.00;;
43706;SDS011;61348;53.392;-6.248;2024-01-30T11:50:38;10.82;;;2.00;;
43706;SDS011;61348;53.392;-6.248;2024-01-30T11:53:07;13.43;;;4.80;;
43706;SDS011;61348;53.392;-6.248;2024-01-30T11:55:34;6.82;;;1.92;;
43706;SDS011;61348;53.392;-6.248;2024-01-30T11:58:04;9.77;;;2.25;;
43706;SDS011;61348;53.392;-6.248;2024-01-30T12:00:32;12.98;;;2.90;;
43706;SDS011;61348;53.392;-6.248;2024-01-30T12:03:01;7.63;;;2.50;;
43706;SDS011;61348;53.392;-6.248;2024-01-30T12:05:31;8.27;;;2.15;;
43706;SDS011;61348;53.392;-6.248;2024-01-30T12:07:58;7.78;;;2.30;;
43706;SDS011;61348;53.392;-6.248;2024-01-30T12:10:28;7.78;;;2.30;;
43706;SDS011;61348;53.392;-6.248;2024-01-30T12:12:56;6.90;;;2.05;;
43706;SDS011;61348;53.392;-6.248;2024-01-30T12:15:25;6.85;;;2.35;;
43706;SDS011;61348;53.392;-6.248;2024-01-30T12:17:52;9.93;;;2.75;;
43706;SDS011;61348;53.392;-6.248;2024-01-30T12:20:31;5.82;;;2.97;;
43706;SDS011;61348;53.392;-6.248;2024-01-30T12:22:59;12.57;;;2.90;;
43706;SDS011;61348;53.392;-6.248;2024-01-30T12:25:27;4.05;;;1.90;;
43706;SDS011;61348;53.392;-6.248;2024-01-30T12:27:54;7.18;;;1.85;;
43706;SDS011;61348;53.392;-6.248;2024-01-30T12:30:24;6.10;;;1.80;;
43706;SDS011;61348;53.392;-6.248;2024-01-30T12:32:51;4.78;;;2.03;;
43706;SDS011;61348;53.392;-6.248;2024-01-30T12:35:20;14.23;;;2.88;;
43706;SDS011;61348;53.392;-6.248;2024-01-30T12:37:49;8.38;;;2.10;;
43706;SDS011;61348;53.392;-6.248;2024-01-30T12:40:17;9.50;;;2.05;;
43706;SDS011;61348;53.392;-6.248;2024-01-30T12:42:46;11.23;;;4.32;;
43706;SDS011;61348;53.392;-6.248;2024-01-30T12:45:17;9.48;;;2.63;;
43706;SDS011;61348;53.392;-6.248;2024-01-30T12:47:50;8.85;;;1.92;;
43706;SDS011;61348;53.392;-6.248;2024-01-30T12:50:17;3.17;;;1.52;;
43706;SDS011;61348;53.392;-6.248;2024-01-30T12:52:46;6.28;;;2.38;;
43706;SDS011;61348;53.392;-6.248;2024-01-30T12:55:16;6.80;;;1.90;;
43706;SDS011;61348;53.392;-6.248;2024-01-30T12:57:45;6.28;;;1.80;;
43706;SDS011;61348;53.392;-6.248;2024-01-30T13:00:13;6.70;;;1.70;;
43706;SDS011;61348;53.392;-6.248;2024-01-30T13:02:44;6.28;;;2.05;;
43706;SDS011;61348;53.392;-6.248;2024-01-30T13:05:13;7.15;;;1.95;;
43706;SDS011;61348;53.392;-6.248;2024-01-30T13:07:40;4.65;;;1.73;;
43706;SDS011;61348;53.392;-6.248;2024-01-30T13:10:08;4.60;;;1.73;;
43706;SDS011;61348;53.392;-6.248;2024-01-30T13:12:37;3.40;;;1.88;;
43706;SDS011;61348;53.392;-6.248;2024-01-30T13:15:06;3.53;;;1.65;;
43706;SDS011;61348;53.392;-6.248;2024-01-30T13:17:33;12.20;;;3.97;;
43706;SDS011;61348;53.392;-6.248;2024-01-30T13:20:01;1.95;;;1.20;;
43706;SDS011;61348;53.392;-6.248;2024-01-30T13:22:37;3.17;;;1.00;;
43706;SDS011;61348;53.392;-6.248;2024-01-30T13:25:07;4.00;;;1.17;;
43706;SDS011;61348;53.392;-6.248;2024-01-30T13:27:36;5.75;;;1.38;;
43706;SDS011;61348;53.392;-6.248;2024-01-30T13:30:06;7.70;;;1.70;;
43706;SDS011;61348;53.392;-6.248;2024-01-30T13:32:35;5.00;;;1.05;;
43706;SDS011;61348;53.392;-6.248;2024-01-30T13:35:03;5.10;;;1.85;;
43706;SDS011;61348;53.392;-6.248;2024-01-30T13:37:31;2.67;;;1.80;;
43706;SDS011;61348;53.392;-6.248;2024-01-30T13:39:59;5.22;;;0.80;;
43706;SDS011;61348;53.392;-6.248;2024-01-30T13:42:30;4.15;;;0.85;;
43706;SDS011;61348;53.392;-6.248;2024-01-30T13:44:58;7.07;;;1.48;;
43706;SDS011;61348;53.392;-6.248;2024-01-30T13:47:25;3.00;;;1.13;;
43706;SDS011;61348;53.392;-6.248;2024-01-30T13:49:53;3.25;;;1.10;;
43706;SDS011;61348;53.392;-6.248;2024-01-30T13:52:20;4.75;;;1.15;;
43706;SDS011;61348;53.392;-6.248;2024-01-30T13:54:54;6.57;;;1.65;;
43706;SDS011;61348;53.392;-6.248;2024-01-30T13:57:22;8.20;;;0.95;;
43706;SDS011;61348;53.392;-6.248;2024-01-30T13:59:50;2.63;;;0.60;;
43706;SDS011;61348;53.392;-6.248;2024-01-30T14:02:17;2.97;;;1.15;;
43706;SDS011;61348;53.392;-6.248;2024-01-30T14:04:45;5.00;;;0.90;;
43706;SDS011;61348;53.392;-6.248;2024-01-30T14:07:13;3.15;;;1.25;;
43706;SDS011;61348;53.392;-6.248;2024-01-30T14:09:40;3.45;;;1.02;;
43706;SDS011;61348;53.392;-6.248;2024-01-30T14:12:07;7.10;;;1.73;;
43706;SDS011;61348;53.392;-6.248;2024-01-30T14:14:35;2.92;;;1.25;;
43706;SDS011;61348;53.392;-6.248;2024-01-30T14:17:03;4.82;;;2.08;;
43706;SDS011;61348;53.392;-6.248;2024-01-30T14:19:34;4.22;;;1.48;;
43706;SDS011;61348;53.392;-6.248;2024-01-30T14:22:03;2.65;;;1.13;;
43706;SDS011;61348;53.392;-6.248;2024-01-30T14:24:30;2.25;;;1.17;;
43706;SDS011;61348;53.392;-6.248;2024-01-30T14:26:57;2.22;;;1.13;;
43706;SDS011;61348;53.392;-6.248;2024-01-30T14:29:26;3.65;;;1.17;;
43706;SDS011;61348;53.392;-6.248;2024-01-30T14:31:54;3.45;;;0.90;;
43706;SDS011;61348;53.392;-6.248;2024-01-30T14:34:22;4.03;;;2.28;;
43706;SDS011;61348;53.392;-6.248;2024-01-30T14:36:49;5.75;;;1.25;;
43706;SDS011;61348;53.392;-6.248;2024-01-30T14:39:17;6.10;;;0.95;;